Аэропорт
Алматы (UAAA)

 UAAA / ALA
ЗЦ Центральная Азия
Алматы (UAAA)
Алматы (UAAA)
 43.35210, 77.04050  / 2234 ft

 TAF UAAA 050500Z 0506/0606 29003G08MPS 6000 -SHRA BKN050CB BKN100 TX17/0506Z TN10/0601Z TEMPO 0506/0514 24010G17MPS 3100 TSRA BR BKN020CB OVC100 TEMPO 0514/0519 20003G12MPS FM051900 35003G08MPS 9999 SCT050CB BKN100
UAAA Jepp 20-06, UAAA Lido 20-06
показать схемы
Название сценария Тип сценария Flight Simulator 9 Flight Simulator X Prepar3D v2 Prepar3D v3 Prepar3D v4 xPlane
Recommended scenery for FS9 бесплатный
Recommended scenery for FSX бесплатный
UAAA 2020 бесплатный
UAAA 2020 бесплатный


2020 © VATRUS division (Privacy Policy)